sensor_id;sensor_type;location;lat;lon;timestamp;P1;durP1;ratioP1;P2;durP2;ratioP2
73104;SDS011;61296;50.526;30.792;2022-09-09T00:04:15;13.38;;;4.50;;
73104;SDS011;61296;50.526;30.792;2022-09-09T00:19:47;7.60;;;4.00;;
73104;SDS011;61296;50.526;30.792;2022-09-09T00:35:30;6.90;;;3.97;;
73104;SDS011;61296;50.526;30.792;2022-09-09T00:51:15;7.85;;;4.07;;
73104;SDS011;61296;50.526;30.792;2022-09-09T01:06:40;10.20;;;3.90;;
73104;SDS011;61296;50.526;30.792;2022-09-09T01:22:10;6.78;;;3.88;;
73104;SDS011;61296;50.526;30.792;2022-09-09T01:37:56;8.18;;;4.15;;
73104;SDS011;61296;50.526;30.792;2022-09-09T01:53:17;7.55;;;3.67;;
73104;SDS011;61296;50.526;30.792;2022-09-09T02:24:04;7.63;;;4.20;;
73104;SDS011;61296;50.526;30.792;2022-09-09T02:39:30;8.83;;;4.10;;
73104;SDS011;61296;50.526;30.792;2022-09-09T02:54:50;6.82;;;4.07;;
73104;SDS011;61296;50.526;30.792;2022-09-09T03:10:18;6.50;;;3.55;;
73104;SDS011;61296;50.526;30.792;2022-09-09T03:25:38;7.03;;;3.63;;
73104;SDS011;61296;50.526;30.792;2022-09-09T03:40:59;7.55;;;3.97;;
73104;SDS011;61296;50.526;30.792;2022-09-09T03:56:19;7.15;;;4.15;;
73104;SDS011;61296;50.526;30.792;2022-09-09T04:11:40;9.40;;;4.35;;
73104;SDS011;61296;50.526;30.792;2022-09-09T04:27:00;7.82;;;4.10;;
73104;SDS011;61296;50.526;30.792;2022-09-09T04:42:20;7.25;;;3.85;;
73104;SDS011;61296;50.526;30.792;2022-09-09T04:57:40;9.07;;;4.20;;
73104;SDS011;61296;50.526;30.792;2022-09-09T05:13:03;12.68;;;5.05;;
73104;SDS011;61296;50.526;30.792;2022-09-09T05:28:24;9.95;;;5.40;;
73104;SDS011;61296;50.526;30.792;2022-09-09T05:43:45;7.25;;;3.95;;
73104;SDS011;61296;50.526;30.792;2022-09-09T05:59:07;6.88;;;3.75;;
73104;SDS011;61296;50.526;30.792;2022-09-09T06:14:26;6.10;;;3.63;;
73104;SDS011;61296;50.526;30.792;2022-09-09T06:29:48;8.48;;;3.50;;
73104;SDS011;61296;50.526;30.792;2022-09-09T06:45:09;10.73;;;4.00;;
73104;SDS011;61296;50.526;30.792;2022-09-09T07:00:37;8.57;;;4.03;;
73104;SDS011;61296;50.526;30.792;2022-09-09T07:16:07;15.75;;;3.88;;
73104;SDS011;61296;50.526;30.792;2022-09-09T07:31:32;5.53;;;2.42;;
73104;SDS011;61296;50.526;30.792;2022-09-09T07:46:54;4.07;;;1.73;;
73104;SDS011;61296;50.526;30.792;2022-09-09T08:02:19;6.57;;;1.52;;
73104;SDS011;61296;50.526;30.792;2022-09-09T08:17:39;3.63;;;1.17;;
73104;SDS011;61296;50.526;30.792;2022-09-09T08:33:00;4.07;;;1.50;;
73104;SDS011;61296;50.526;30.792;2022-09-09T09:19:22;3.65;;;1.35;;
73104;SDS011;61296;50.526;30.792;2022-09-09T09:34:51;2.92;;;1.20;;
73104;SDS011;61296;50.526;30.792;2022-09-09T09:50:16;2.45;;;1.13;;
73104;SDS011;61296;50.526;30.792;2022-09-09T10:05:38;3.80;;;1.17;;
73104;SDS011;61296;50.526;30.792;2022-09-09T10:36:51;10.77;;;1.70;;
73104;SDS011;61296;50.526;30.792;2022-09-09T10:52:14;8.57;;;1.30;;
73104;SDS011;61296;50.526;30.792;2022-09-09T11:07:43;3.35;;;1.15;;
73104;SDS011;61296;50.526;30.792;2022-09-09T11:23:17;8.68;;;1.30;;
73104;SDS011;61296;50.526;30.792;2022-09-09T11:38:44;6.55;;;1.48;;
73104;SDS011;61296;50.526;30.792;2022-09-09T12:10:04;5.53;;;1.33;;
73104;SDS011;61296;50.526;30.792;2022-09-09T12:41:18;4.45;;;1.20;;
73104;SDS011;61296;50.526;30.792;2022-09-09T12:56:39;3.22;;;1.10;;
73104;SDS011;61296;50.526;30.792;2022-09-09T13:11:58;6.97;;;2.03;;
73104;SDS011;61296;50.526;30.792;2022-09-09T13:42:52;4.72;;;1.42;;
73104;SDS011;61296;50.526;30.792;2022-09-09T14:13:34;7.28;;;3.15;;
73104;SDS011;61296;50.526;30.792;2022-09-09T14:28:53;6.15;;;3.72;;
73104;SDS011;61296;50.526;30.792;2022-09-09T14:44:13;10.45;;;6.20;;
73104;SDS011;61296;50.526;30.792;2022-09-09T14:59:34;5.22;;;2.75;;
73104;SDS011;61296;50.526;30.792;2022-09-09T15:14:52;6.93;;;2.65;;
73104;SDS011;61296;50.526;30.792;2022-09-09T15:30:13;6.45;;;2.20;;
73104;SDS011;61296;50.526;30.792;2022-09-09T15:45:33;25.52;;;11.70;;
73104;SDS011;61296;50.526;30.792;2022-09-09T16:00:52;48.97;;;20.27;;
73104;SDS011;61296;50.526;30.792;2022-09-09T16:16:12;40.95;;;15.57;;
73104;SDS011;61296;50.526;30.792;2022-09-09T16:31:33;26.48;;;10.57;;
73104;SDS011;61296;50.526;30.792;2022-09-09T16:46:52;23.38;;;10.00;;
73104;SDS011;61296;50.526;30.792;2022-09-09T17:02:11;16.08;;;7.15;;
73104;SDS011;61296;50.526;30.792;2022-09-09T17:17:30;12.27;;;5.65;;
73104;SDS011;61296;50.526;30.792;2022-09-09T17:32:49;16.13;;;6.18;;
73104;SDS011;61296;50.526;30.792;2022-09-09T17:48:09;10.73;;;5.13;;
73104;SDS011;61296;50.526;30.792;2022-09-09T18:03:28;14.18;;;4.65;;
73104;SDS011;61296;50.526;30.792;2022-09-09T18:18:48;11.27;;;3.50;;
73104;SDS011;61296;50.526;30.792;2022-09-09T18:34:10;12.52;;;4.10;;
73104;SDS011;61296;50.526;30.792;2022-09-09T18:49:30;12.02;;;3.90;;
73104;SDS011;61296;50.526;30.792;2022-09-09T19:04:51;16.98;;;4.30;;
73104;SDS011;61296;50.526;30.792;2022-09-09T19:20:11;9.20;;;3.72;;
73104;SDS011;61296;50.526;30.792;2022-09-09T19:35:31;8.18;;;3.58;;
73104;SDS011;61296;50.526;30.792;2022-09-09T19:50:50;9.15;;;3.38;;
73104;SDS011;61296;50.526;30.792;2022-09-09T20:06:12;6.55;;;3.55;;
73104;SDS011;61296;50.526;30.792;2022-09-09T20:21:34;8.43;;;4.30;;
73104;SDS011;61296;50.526;30.792;2022-09-09T20:36:56;14.77;;;4.35;;
73104;SDS011;61296;50.526;30.792;2022-09-09T20:52:16;9.90;;;3.88;;
73104;SDS011;61296;50.526;30.792;2022-09-09T21:07:38;8.15;;;3.72;;
73104;SDS011;61296;50.526;30.792;2022-09-09T21:22:57;6.38;;;3.65;;
73104;SDS011;61296;50.526;30.792;2022-09-09T21:38:18;7.43;;;4.00;;
73104;SDS011;61296;50.526;30.792;2022-09-09T21:53:39;7.63;;;3.75;;
73104;SDS011;61296;50.526;30.792;2022-09-09T22:08:58;6.65;;;3.58;;
73104;SDS011;61296;50.526;30.792;2022-09-09T22:24:19;8.77;;;3.65;;
73104;SDS011;61296;50.526;30.792;2022-09-09T22:39:38;6.57;;;3.75;;
73104;SDS011;61296;50.526;30.792;2022-09-09T22:54:58;7.68;;;4.45;;
73104;SDS011;61296;50.526;30.792;2022-09-09T23:10:17;6.47;;;4.13;;
73104;SDS011;61296;50.526;30.792;2022-09-09T23:25:37;12.18;;;4.95;;
73104;SDS011;61296;50.526;30.792;2022-09-09T23:40:59;8.65;;;4.38;;
73104;SDS011;61296;50.526;30.792;2022-09-09T23:56:19;7.70;;;4.80;;
